createdAt,value
2018-08-16T00:00:37.538Z,101239.86
2018-08-16T00:03:08.136Z,101238.72
2018-08-16T00:05:38.696Z,101242.66
2018-08-16T00:08:09.289Z,101242.69
2018-08-16T00:10:39.929Z,101248.75
2018-08-16T00:13:10.541Z,101238.03
2018-08-16T00:15:41.131Z,101241.50
2018-08-16T00:18:11.733Z,101235.16
2018-08-16T00:20:42.317Z,101239.11
2018-08-16T00:23:12.703Z,101239.04
2018-08-16T00:25:43.205Z,101238.02
2018-08-16T00:28:13.559Z,101238.86
2018-08-16T00:30:44.045Z,101238.64
2018-08-16T00:33:14.437Z,101237.83
2018-08-16T00:35:45.082Z,101237.17
2018-08-16T00:38:15.687Z,101232.97
2018-08-16T00:40:46.508Z,101237.37
2018-08-16T00:43:16.953Z,101232.14
2018-08-16T00:45:47.331Z,101233.09
2018-08-16T00:48:17.707Z,101236.81
2018-08-16T00:50:48.279Z,101236.37
2018-08-16T00:53:18.796Z,101232.98
2018-08-16T00:55:49.478Z,101236.16
2018-08-16T00:58:19.965Z,101231.09
2018-08-16T01:00:50.736Z,101229.97
2018-08-16T01:03:21.337Z,101231.02
2018-08-16T01:05:51.746Z,101233.27
2018-08-16T01:08:22.176Z,101221.48
2018-08-16T01:10:52.730Z,101225.77
2018-08-16T01:13:23.275Z,101222.04
2018-08-16T01:15:53.878Z,101223.36
2018-08-16T01:18:24.572Z,101218.86
2018-08-16T01:20:55.209Z,101221.29
2018-08-16T01:23:25.561Z,101225.31
2018-08-16T01:25:56.139Z,101218.50
2018-08-16T01:28:26.590Z,101224.11
2018-08-16T01:30:57.088Z,101220.73
2018-08-16T01:33:27.654Z,101221.49
2018-08-16T01:35:58.235Z,101219.33
2018-08-16T01:38:28.748Z,101222.13
2018-08-16T01:41:12.279Z,101221.40
2018-08-16T01:43:42.878Z,101225.67
2018-08-16T01:46:13.507Z,101221.47
2018-08-16T01:48:44.060Z,101219.61
2018-08-16T01:51:14.615Z,101215.50
2018-08-16T01:53:45.305Z,101215.22
2018-08-16T01:56:15.852Z,101210.63
2018-08-16T01:58:46.231Z,101213.63
2018-08-16T02:01:16.715Z,101213.24
2018-08-16T02:03:47.226Z,101208.78
2018-08-16T02:06:17.828Z,101206.70
2018-08-16T02:08:48.388Z,101207.05
2018-08-16T02:11:18.960Z,101212.09
2018-08-16T02:13:49.575Z,101209.28
2018-08-16T02:16:20.148Z,101206.03
2018-08-16T02:18:50.697Z,101203.90
2018-08-16T02:21:21.204Z,101208.45
2018-08-16T02:23:51.657Z,101212.27
2018-08-16T02:26:22.013Z,101204.62
2018-08-16T02:28:52.647Z,101203.95
2018-08-16T02:31:23.113Z,101207.59
2018-08-16T02:33:54.099Z,101208.06
2018-08-16T02:36:24.811Z,101215.23
2018-08-16T02:38:55.491Z,101208.14
2018-08-16T02:41:25.915Z,101211.31
2018-08-16T02:43:56.387Z,101204.33
2018-08-16T02:46:27.028Z,101208.70
2018-08-16T02:48:57.383Z,101208.97
2018-08-16T02:51:27.938Z,101206.94
2018-08-16T02:53:58.405Z,101202.05
2018-08-16T02:56:29.022Z,101202.62
2018-08-16T02:58:59.761Z,101208.88
2018-08-16T03:01:30.321Z,101204.28
2018-08-16T03:04:00.952Z,101204.13
2018-08-16T03:06:31.198Z,101205.66
2018-08-16T03:09:01.700Z,101202.22
2018-08-16T03:11:32.110Z,101202.13
2018-08-16T03:14:02.704Z,101200.42
2018-08-16T03:16:33.273Z,101200.04
2018-08-16T03:19:03.676Z,101198.69
2018-08-16T03:21:34.260Z,101198.19
2018-08-16T03:24:05.029Z,101197.41
2018-08-16T03:26:35.536Z,101192.08
2018-08-16T03:29:06.415Z,101192.47
2018-08-16T03:31:36.903Z,101191.61
2018-08-16T03:34:07.380Z,101194.06
2018-08-16T03:36:37.971Z,101191.16
2018-08-16T03:39:09.926Z,101190.57
2018-08-16T03:41:40.352Z,101190.39
2018-08-16T03:44:10.723Z,101187.78
2018-08-16T03:46:41.288Z,101183.55
2018-08-16T03:51:42.731Z,101183.53
2018-08-16T03:54:13.259Z,101188.33
2018-08-16T03:56:43.756Z,101180.02
2018-08-16T03:59:13.975Z,101181.51
2018-08-16T04:01:44.415Z,101184.75
2018-08-16T04:04:14.976Z,101183.35
2018-08-16T04:06:45.376Z,101176.63
2018-08-16T04:09:15.844Z,101180.00
2018-08-16T04:11:46.215Z,101177.74
2018-08-16T04:14:16.566Z,101178.22
2018-08-16T04:16:47.046Z,101173.42
2018-08-16T04:19:17.542Z,101176.13
2018-08-16T04:21:48.004Z,101179.44
2018-08-16T04:24:18.390Z,101174.30
2018-08-16T04:26:48.751Z,101181.12
2018-08-16T04:29:19.073Z,101176.83
2018-08-16T04:31:49.603Z,101177.50
2018-08-16T04:34:20.112Z,101178.14
2018-08-16T04:36:50.745Z,101171.47
2018-08-16T04:39:21.124Z,101175.14
2018-08-16T04:41:51.548Z,101175.53
2018-08-16T04:44:21.580Z,101166.84
2018-08-16T04:46:52.237Z,101170.86
2018-08-16T04:49:22.818Z,101158.50
2018-08-16T04:51:53.378Z,101159.45
2018-08-16T04:54:23.986Z,101167.16
2018-08-16T04:56:54.850Z,101166.82
2018-08-16T04:59:25.423Z,101163.55
2018-08-16T05:01:55.863Z,101175.54
2018-08-16T05:04:26.339Z,101170.30
2018-08-16T05:06:56.965Z,101171.43
2018-08-16T05:09:27.506Z,101168.70
2018-08-16T05:11:58.008Z,101179.83
2018-08-16T05:14:28.774Z,101174.39
2018-08-16T05:16:59.377Z,101178.48
2018-08-16T05:19:30.065Z,101174.30
2018-08-16T05:22:00.647Z,101181.80
2018-08-16T05:24:31.051Z,101181.84
2018-08-16T05:27:01.505Z,101179.08
2018-08-16T05:29:31.974Z,101175.87
2018-08-16T05:32:02.619Z,101177.02
2018-08-16T05:34:33.172Z,101178.73
2018-08-16T05:37:03.671Z,101178.15
2018-08-16T05:39:34.316Z,101175.99
2018-08-16T05:42:04.922Z,101179.27
2018-08-16T05:44:35.496Z,101179.30
2018-08-16T05:47:06.409Z,101179.81
2018-08-16T05:49:37.092Z,101173.58
2018-08-16T05:52:07.563Z,101173.66
2018-08-16T05:54:37.904Z,101176.03
2018-08-16T05:57:08.314Z,101175.11
2018-08-16T05:59:38.857Z,101171.41
2018-08-16T06:02:09.588Z,101169.76
2018-08-16T06:04:40.251Z,101165.52
2018-08-16T06:07:10.748Z,101168.69
2018-08-16T06:09:41.364Z,101168.69
2018-08-16T06:12:11.942Z,101159.33
2018-08-16T06:14:42.303Z,101151.23
2018-08-16T06:17:13.602Z,101159.71
2018-08-16T06:19:44.184Z,101156.71
2018-08-16T06:22:14.790Z,101162.10
2018-08-16T06:24:45.451Z,101159.55
2018-08-16T06:27:16.176Z,101154.73
2018-08-16T06:29:47.020Z,101152.05
2018-08-16T06:32:17.723Z,101159.05
2018-08-16T06:34:48.283Z,101148.41
2018-08-16T06:37:18.910Z,101151.30
2018-08-16T06:39:49.588Z,101151.35
2018-08-16T06:42:20.065Z,101150.09
2018-08-16T06:44:50.746Z,101146.72
2018-08-16T06:47:21.116Z,101141.36
2018-08-16T06:49:51.600Z,101141.08
2018-08-16T06:52:22.090Z,101135.45
2018-08-16T06:54:52.647Z,101139.81
2018-08-16T06:57:23.159Z,101139.16
2018-08-16T06:59:53.710Z,101138.14
2018-08-16T07:02:24.259Z,101138.55
2018-08-16T07:04:55.079Z,101139.57
2018-08-16T07:07:25.610Z,101133.79
2018-08-16T07:09:55.916Z,101140.98
2018-08-16T07:12:26.437Z,101133.62
2018-08-16T07:14:56.875Z,101135.90
2018-08-16T07:17:27.509Z,101133.39
2018-08-16T07:19:58.052Z,101141.10
2018-08-16T07:22:28.629Z,101131.17
2018-08-16T07:24:59.226Z,101126.83
2018-08-16T07:27:29.830Z,101135.97
2018-08-16T07:30:01.402Z,101123.97
2018-08-16T07:32:31.877Z,101124.16
2018-08-16T07:35:02.489Z,101119.61
2018-08-16T07:37:33.161Z,101116.44
2018-08-16T07:40:04.114Z,101112.45
2018-08-16T07:42:34.528Z,101112.91
2018-08-16T07:45:05.528Z,101109.36
2018-08-16T07:47:36.125Z,101106.87
2018-08-16T07:50:08.785Z,101109.73
2018-08-16T07:52:39.995Z,101107.47
2018-08-16T07:55:10.985Z,101103.93
2018-08-16T07:57:41.497Z,101103.66
2018-08-16T08:00:16.769Z,101113.41
2018-08-16T08:02:47.708Z,101105.45
2018-08-16T08:05:18.220Z,101107.78
2018-08-16T08:07:48.736Z,101105.27
2018-08-16T08:10:20.418Z,101103.91
2018-08-16T08:12:50.921Z,101104.28
2018-08-16T08:15:21.406Z,101105.15
2018-08-16T08:17:51.921Z,101105.08
2018-08-16T08:20:22.423Z,101103.01
2018-08-16T08:22:53.054Z,101097.61
2018-08-16T08:25:23.507Z,101098.05
2018-08-16T08:27:54.122Z,101094.77
2018-08-16T08:30:24.813Z,101101.86
2018-08-16T08:32:55.331Z,101092.78
2018-08-16T08:35:25.970Z,101096.42
2018-08-16T08:38:08.556Z,101092.50
2018-08-16T08:40:38.966Z,101097.41
2018-08-16T08:43:09.806Z,101092.14
2018-08-16T08:45:40.175Z,101099.92
2018-08-16T08:48:10.789Z,101083.08
2018-08-16T08:50:41.380Z,101082.44
2018-08-16T08:53:28.320Z,101079.15
2018-08-16T08:56:15.090Z,101070.30
2018-08-16T08:58:52.594Z,101072.22
2018-08-16T09:01:23.141Z,101068.39
2018-08-16T09:03:53.671Z,101059.19
2018-08-16T09:06:24.246Z,101060.63
2018-08-16T09:08:54.703Z,101063.48
2018-08-16T09:11:41.732Z,101067.64
2018-08-16T09:14:28.741Z,101061.72
2018-08-16T09:16:59.243Z,101059.52
2018-08-16T09:19:29.685Z,101057.77
2018-08-16T09:22:00.413Z,101049.86
2018-08-16T09:24:30.877Z,101046.84
2018-08-16T09:27:01.348Z,101053.56
2018-08-16T09:30:46.966Z,101048.02
2018-08-16T09:33:33.776Z,101043.33
2018-08-16T09:36:04.024Z,101039.11
2018-08-16T09:38:34.725Z,101033.45
2018-08-16T09:41:05.295Z,101033.48
2018-08-16T09:43:35.807Z,101029.72
2018-08-16T09:47:25.847Z,101031.00
2018-08-16T09:49:56.167Z,101022.03
2018-08-16T09:52:26.713Z,101023.49
2018-08-16T09:54:57.486Z,101025.59
2018-08-16T09:57:28.103Z,101014.98
2018-08-16T09:59:58.694Z,101007.63
2018-08-16T10:02:29.192Z,101007.83
2018-08-16T10:04:59.870Z,101002.14
2018-08-16T10:07:30.353Z,101008.09
2018-08-16T10:10:00.625Z,101002.56
2018-08-16T10:12:31.186Z,100996.96
2018-08-16T10:15:01.673Z,100998.71
2018-08-16T10:17:32.179Z,100999.73
2018-08-16T10:20:02.880Z,100995.43
2018-08-16T10:22:33.471Z,100994.02
2018-08-16T10:25:04.132Z,100993.97
2018-08-16T10:27:34.681Z,100983.05
2018-08-16T10:30:05.839Z,100981.23
2018-08-16T10:32:36.347Z,100988.77
2018-08-16T10:35:07.349Z,100979.63
2018-08-16T10:37:38.527Z,100986.92
2018-08-16T10:40:09.100Z,100972.98
2018-08-16T10:42:39.677Z,100975.69
2018-08-16T10:45:10.178Z,100977.91
2018-08-16T10:47:40.749Z,100974.65
2018-08-16T10:50:11.283Z,100971.19
2018-08-16T10:52:41.719Z,100959.95
2018-08-16T10:55:12.210Z,100971.11
2018-08-16T10:57:42.693Z,100967.47
2018-08-16T11:00:14.211Z,100964.30
2018-08-16T11:02:44.789Z,100957.05
2018-08-16T11:05:15.382Z,100954.47
2018-08-16T11:07:45.966Z,100950.95
2018-08-16T11:10:16.310Z,100949.66
2018-08-16T11:12:46.818Z,100960.84
2018-08-16T11:15:17.282Z,100958.18
2018-08-16T11:17:47.796Z,100955.98
2018-08-16T11:20:18.447Z,100956.92
2018-08-16T11:22:49.132Z,100947.06
2018-08-16T11:25:19.684Z,100951.69
2018-08-16T11:27:50.144Z,100942.23
2018-08-16T11:30:20.565Z,100947.38
2018-08-16T11:32:51.099Z,100938.53
2018-08-16T11:35:21.529Z,100933.28
2018-08-16T11:37:52.085Z,100936.23
2018-08-16T11:40:22.480Z,100937.66
2018-08-16T11:42:52.814Z,100930.59
2018-08-16T11:45:23.328Z,100931.49
2018-08-16T11:47:53.879Z,100925.50
2018-08-16T11:50:24.515Z,100927.83
2018-08-16T11:52:55.091Z,100927.77
2018-08-16T11:55:25.688Z,100930.41
2018-08-16T11:57:56.267Z,100919.36
2018-08-16T12:00:26.967Z,100919.04
2018-08-16T12:02:57.605Z,100918.16
2018-08-16T12:05:28.148Z,100907.38
2018-08-16T12:07:58.620Z,100908.53
2018-08-16T12:10:29.190Z,100905.54
2018-08-16T12:12:59.625Z,100905.29
2018-08-16T12:15:30.050Z,100898.81
2018-08-16T12:18:00.690Z,100897.69
2018-08-16T12:20:31.261Z,100890.61
2018-08-16T12:23:01.763Z,100893.66
2018-08-16T12:25:32.432Z,100887.87
2018-08-16T12:28:02.917Z,100894.94
2018-08-16T12:30:33.131Z,100885.52
2018-08-16T12:33:03.609Z,100886.12
2018-08-16T12:35:34.079Z,100880.34
2018-08-16T12:38:04.590Z,100881.19
2018-08-16T12:40:35.346Z,100875.11
2018-08-16T12:43:05.745Z,100882.02
2018-08-16T12:45:36.213Z,100879.41
2018-08-16T12:48:06.742Z,100873.73
2018-08-16T12:50:37.302Z,100865.70
2018-08-16T12:53:07.845Z,100865.67
2018-08-16T12:55:38.373Z,100863.44
2018-08-16T12:58:08.821Z,100857.91
2018-08-16T13:00:39.569Z,100853.96
2018-08-16T13:03:10.220Z,100845.80
2018-08-16T13:05:40.888Z,100845.89
2018-08-16T13:08:11.347Z,100841.64
2018-08-16T13:10:41.795Z,100839.20
2018-08-16T13:13:12.384Z,100833.32
2018-08-16T13:15:43.012Z,100823.72
2018-08-16T13:18:13.584Z,100822.98
2018-08-16T13:20:44.140Z,100825.96
2018-08-16T13:23:14.780Z,100825.20
2018-08-16T13:25:45.397Z,100832.17
2018-08-16T13:28:16.357Z,100821.42
2018-08-16T13:30:46.964Z,100818.12
2018-08-16T13:33:17.567Z,100817.20
2018-08-16T13:35:48.142Z,100810.64
2018-08-16T13:38:18.700Z,100812.50
2018-08-16T13:40:49.391Z,100811.02
2018-08-16T13:43:20.168Z,100812.58
2018-08-16T13:45:50.765Z,100809.94
2018-08-16T13:48:21.339Z,100803.59
2018-08-16T13:50:51.734Z,100801.47
2018-08-16T13:53:22.267Z,100798.70
2018-08-16T13:55:52.772Z,100801.81
2018-08-16T13:58:23.322Z,100795.41
2018-08-16T14:00:53.817Z,100792.38
2018-08-16T14:03:24.294Z,100789.33
2018-08-16T14:05:54.783Z,100787.38
2018-08-16T14:08:25.061Z,100785.90
2018-08-16T14:10:55.431Z,100786.37
2018-08-16T14:13:25.935Z,100787.91
2018-08-16T14:15:56.549Z,100780.55
2018-08-16T14:18:27.147Z,100780.75
2018-08-16T14:20:57.743Z,100773.89
2018-08-16T14:23:28.344Z,100780.98
2018-08-16T14:25:58.902Z,100771.87
2018-08-16T14:28:29.464Z,100770.06
2018-08-16T14:31:00.021Z,100766.09
2018-08-16T14:33:30.402Z,100770.68
2018-08-16T14:36:00.705Z,100764.08
2018-08-16T14:38:31.323Z,100766.66
2018-08-16T14:41:01.806Z,100772.23
2018-08-16T14:43:32.458Z,100765.95
2018-08-16T14:46:03.044Z,100762.44
2018-08-16T14:48:33.720Z,100760.98
2018-08-16T14:51:04.169Z,100761.73
2018-08-16T14:53:34.524Z,100754.50
2018-08-16T14:56:05.073Z,100754.11
2018-08-16T14:58:35.545Z,100762.14
2018-08-16T15:01:06.160Z,100756.78
2018-08-16T15:03:36.728Z,100746.16
2018-08-16T15:06:07.300Z,100746.47
2018-08-16T15:08:37.935Z,100748.33
2018-08-16T15:11:08.616Z,100745.13
2018-08-16T15:13:39.151Z,100740.94
2018-08-16T15:16:09.810Z,100741.41
2018-08-16T15:18:40.493Z,100741.45
2018-08-16T15:21:11.146Z,100733.34
2018-08-16T15:23:41.752Z,100739.88
2018-08-16T15:26:12.358Z,100733.70
2018-08-16T15:28:42.851Z,100736.18
2018-08-16T15:31:14.230Z,100734.03
2018-08-16T15:33:44.831Z,100735.36
2018-08-16T15:36:15.460Z,100732.58
2018-08-16T15:38:45.826Z,100722.27
2018-08-16T15:41:16.474Z,100729.06
2018-08-16T15:43:47.006Z,100719.50
2018-08-16T15:46:17.560Z,100713.94
2018-08-16T15:48:48.228Z,100717.84
2018-08-16T15:51:18.775Z,100715.34
2018-08-16T15:53:49.406Z,100712.24
2018-08-16T15:56:20.099Z,100711.59
2018-08-16T15:58:50.658Z,100713.80
2018-08-16T16:01:21.362Z,100711.27
2018-08-16T16:03:51.941Z,100705.63
2018-08-16T16:06:22.672Z,100707.39
2018-08-16T16:08:53.238Z,100708.17
2018-08-16T16:11:23.845Z,100705.02
2018-08-16T16:13:54.246Z,100708.56
2018-08-16T16:16:24.512Z,100705.70
2018-08-16T16:18:55.473Z,100701.09
2018-08-16T16:21:25.977Z,100700.48
2018-08-16T16:23:56.635Z,100700.57
2018-08-16T16:26:27.362Z,100698.17
2018-08-16T16:28:58.120Z,100693.23
2018-08-16T16:31:28.980Z,100687.48
2018-08-16T16:33:59.800Z,100689.05
2018-08-16T16:36:30.398Z,100681.44
2018-08-16T16:39:00.980Z,100684.03
2018-08-16T16:41:31.437Z,100686.79
2018-08-16T16:44:01.724Z,100687.59
2018-08-16T16:46:32.239Z,100688.05
2018-08-16T16:49:02.707Z,100671.32
2018-08-16T16:51:33.289Z,100678.13
2018-08-16T16:54:04.030Z,100678.95
2018-08-16T16:56:34.627Z,100678.64
2018-08-16T16:59:05.220Z,100677.91
2018-08-16T17:01:35.824Z,100676.52
2018-08-16T17:04:06.309Z,100677.50
2018-08-16T17:06:36.878Z,100674.36
2018-08-16T17:09:10.378Z,100675.00
2018-08-16T17:11:41.337Z,100679.45
2018-08-16T17:14:11.844Z,100679.36
2018-08-16T17:16:42.322Z,100677.73
2018-08-16T17:19:12.751Z,100677.14
2018-08-16T17:21:43.358Z,100677.80
2018-08-16T17:24:13.928Z,100672.58
2018-08-16T17:26:44.428Z,100673.06
2018-08-16T17:29:14.981Z,100674.48
2018-08-16T17:31:45.587Z,100674.12
2018-08-16T17:34:15.981Z,100671.13
2018-08-16T17:36:46.414Z,100672.14
2018-08-16T17:39:16.947Z,100672.86
2018-08-16T17:41:47.533Z,100668.89
2018-08-16T17:44:18.107Z,100676.04
2018-08-16T17:46:48.603Z,100676.80
2018-08-16T17:49:19.543Z,100676.88
2018-08-16T17:51:50.102Z,100670.00
2018-08-16T17:54:20.889Z,100676.94
2018-08-16T17:56:51.492Z,100675.45
2018-08-16T17:59:22.110Z,100680.20
2018-08-16T18:01:52.559Z,100681.03
2018-08-16T18:04:23.039Z,100677.16
2018-08-16T18:06:53.441Z,100679.27
2018-08-16T18:09:23.893Z,100676.06
2018-08-16T18:11:54.456Z,100678.72
2018-08-16T18:14:24.864Z,100676.73
2018-08-16T18:16:55.111Z,100681.17
2018-08-16T18:19:25.530Z,100676.73
2018-08-16T18:21:55.974Z,100677.22
2018-08-16T18:24:26.566Z,100673.34
2018-08-16T18:26:57.061Z,100677.20
2018-08-16T18:29:27.551Z,100684.93
2018-08-16T18:31:57.948Z,100680.33
2018-08-16T18:34:28.310Z,100686.28
2018-08-16T18:36:58.890Z,100688.16
2018-08-16T18:39:29.372Z,100685.30
2018-08-16T18:41:59.810Z,100683.58
2018-08-16T18:44:30.236Z,100688.48
2018-08-16T18:47:00.492Z,100686.09
2018-08-16T18:49:31.002Z,100687.98
2018-08-16T18:52:01.555Z,100695.79
2018-08-16T18:54:32.154Z,100699.67
2018-08-16T18:57:02.709Z,100698.38
2018-08-16T18:59:33.057Z,100707.55
2018-08-16T19:02:03.643Z,100705.09
2018-08-16T19:04:34.600Z,100706.09
2018-08-16T19:07:05.132Z,100705.28
2018-08-16T19:09:35.454Z,100712.41
2018-08-16T19:12:06.084Z,100705.95
2018-08-16T19:14:36.642Z,100709.28
2018-08-16T19:17:07.345Z,100706.08
2018-08-16T19:19:37.809Z,100706.77
2018-08-16T19:22:08.357Z,100707.05
2018-08-16T19:24:38.852Z,100709.69
2018-08-16T19:27:09.364Z,100704.39
2018-08-16T19:29:39.861Z,100706.03
2018-08-16T19:32:10.358Z,100707.31
2018-08-16T19:34:41.321Z,100717.97
2018-08-16T19:37:11.832Z,100714.25
2018-08-16T19:39:42.393Z,100710.63
2018-08-16T19:42:12.935Z,100705.83
2018-08-16T19:44:43.485Z,100707.45
2018-08-16T19:47:13.866Z,100707.42
2018-08-16T19:49:44.352Z,100701.72
2018-08-16T19:52:14.898Z,100707.30
2018-08-16T19:54:45.272Z,100697.77
2018-08-16T19:57:15.853Z,100715.75
2018-08-16T19:59:46.285Z,100710.11
2018-08-16T20:02:16.806Z,100715.88
2018-08-16T20:04:47.200Z,100709.08
2018-08-16T20:07:17.655Z,100704.98
2018-08-16T20:09:48.157Z,100705.63
2018-08-16T20:12:18.739Z,100704.39
2018-08-16T20:14:49.176Z,100700.27
2018-08-16T20:17:20.316Z,100704.68
2018-08-16T20:19:50.730Z,100702.98
2018-08-16T20:22:21.743Z,100709.72
2018-08-16T20:24:52.276Z,100707.55
2018-08-16T20:27:22.851Z,100717.48
2018-08-16T20:29:53.437Z,100719.50
2018-08-16T20:32:23.904Z,100721.33
2018-08-16T20:34:55.060Z,100719.81
2018-08-16T20:37:25.796Z,100722.56
2018-08-16T20:39:56.387Z,100724.90
2018-08-16T20:42:26.872Z,100728.80
2018-08-16T20:44:57.125Z,100724.48
2018-08-16T20:47:27.705Z,100724.48
2018-08-16T20:49:57.903Z,100725.86
2018-08-16T20:52:28.482Z,100730.81
2018-08-16T20:54:59.040Z,100731.63
2018-08-16T20:57:29.673Z,100731.02
2018-08-16T21:00:00.296Z,100733.41
2018-08-16T21:02:30.808Z,100737.02
2018-08-16T21:05:01.090Z,100734.48
2018-08-16T21:07:31.457Z,100731.94
2018-08-16T21:10:02.031Z,100740.33
2018-08-16T21:12:32.645Z,100737.89
2018-08-16T21:15:03.066Z,100736.97
2018-08-16T21:17:33.708Z,100743.06
2018-08-16T21:20:04.279Z,100747.73
2018-08-16T21:22:34.634Z,100750.08
2018-08-16T21:25:05.486Z,100748.39
2018-08-16T21:27:35.907Z,100761.17
2018-08-16T21:30:07.679Z,100764.78
2018-08-16T21:32:37.976Z,100765.19
2018-08-16T21:35:08.455Z,100766.98
2018-08-16T21:37:39.014Z,100765.30
2018-08-16T21:40:09.567Z,100771.14
2018-08-16T21:42:40.024Z,100766.27
2018-08-16T21:45:10.588Z,100767.12
2018-08-16T21:47:40.993Z,100770.53
2018-08-16T21:50:11.432Z,100771.20
2018-08-16T21:52:41.844Z,100772.81
2018-08-16T21:55:12.306Z,100775.05
2018-08-16T21:57:42.750Z,100777.97
2018-08-16T22:00:20.727Z,100774.66
2018-08-16T22:02:51.538Z,100770.29
2018-08-16T22:05:21.752Z,100776.89
2018-08-16T22:08:14.512Z,100776.73
2018-08-16T22:10:45.138Z,100775.98
2018-08-16T22:13:15.516Z,100773.41
2018-08-16T22:15:45.925Z,100778.62
2018-08-16T22:18:16.473Z,100780.59
2018-08-16T22:20:46.976Z,100784.84
2018-08-16T22:23:17.555Z,100787.86
2018-08-16T22:25:47.983Z,100792.02
2018-08-16T22:28:18.405Z,100791.56
2018-08-16T22:30:48.904Z,100787.25
2018-08-16T22:33:19.451Z,100796.20
2018-08-16T22:35:50.132Z,100797.44
2018-08-16T22:38:20.699Z,100794.52
2018-08-16T22:40:51.105Z,100795.78
2018-08-16T22:43:21.568Z,100806.34
2018-08-16T22:45:52.071Z,100803.63
2018-08-16T22:48:22.466Z,100793.92
2018-08-16T22:50:53.089Z,100800.66
2018-08-16T22:53:23.478Z,100802.81
2018-08-16T22:55:53.956Z,100798.36
2018-08-16T22:58:24.608Z,100795.64
2018-08-16T23:00:55.200Z,100801.14
2018-08-16T23:03:25.674Z,100799.27
2018-08-16T23:05:56.066Z,100797.88
2018-08-16T23:08:26.387Z,100791.56
2018-08-16T23:10:56.866Z,100788.86
2018-08-16T23:13:27.380Z,100787.89
2018-08-16T23:15:58.122Z,100795.94
2018-08-16T23:18:28.577Z,100791.63
2018-08-16T23:20:58.939Z,100796.63
2018-08-16T23:23:29.340Z,100796.41
2018-08-16T23:25:59.781Z,100801.25
2018-08-16T23:28:30.332Z,100797.73
2018-08-16T23:31:00.603Z,100800.19
2018-08-16T23:33:31.007Z,100794.17
2018-08-16T23:36:01.653Z,100798.11
2018-08-16T23:38:32.171Z,100795.77
2018-08-16T23:41:02.748Z,100795.94
2018-08-16T23:43:33.250Z,100794.03
2018-08-16T23:46:03.719Z,100799.93
2018-08-16T23:48:34.190Z,100797.14
2018-08-16T23:51:04.779Z,100797.41
2018-08-16T23:53:35.370Z,100794.14
2018-08-16T23:56:06.079Z,100793.44
2018-08-16T23:58:36.637Z,100785.78
